sensor_id;sensor_type;location;lat;lon;timestamp;P1;durP1;ratioP1;P2;durP2;ratioP2
18720;SDS011;9489;50.948;3.114;2024-01-10T00:01:34;7.93;;;5.90;;
18720;SDS011;9489;50.948;3.114;2024-01-10T00:04:00;7.00;;;5.77;;
18720;SDS011;9489;50.948;3.114;2024-01-10T00:06:25;9.17;;;6.87;;
18720;SDS011;9489;50.948;3.114;2024-01-10T00:08:51;9.23;;;5.90;;
18720;SDS011;9489;50.948;3.114;2024-01-10T00:11:17;9.37;;;5.83;;
18720;SDS011;9489;50.948;3.114;2024-01-10T00:13:42;7.43;;;5.87;;
18720;SDS011;9489;50.948;3.114;2024-01-10T00:16:08;9.83;;;6.27;;
18720;SDS011;9489;50.948;3.114;2024-01-10T00:18:36;10.30;;;6.00;;
18720;SDS011;9489;50.948;3.114;2024-01-10T00:21:02;9.47;;;6.00;;
18720;SDS011;9489;50.948;3.114;2024-01-10T00:23:28;7.83;;;5.47;;
18720;SDS011;9489;50.948;3.114;2024-01-10T00:25:53;7.53;;;6.17;;
18720;SDS011;9489;50.948;3.114;2024-01-10T00:28:20;7.30;;;5.53;;
18720;SDS011;9489;50.948;3.114;2024-01-10T00:30:46;10.07;;;6.80;;
18720;SDS011;9489;50.948;3.114;2024-01-10T00:33:13;8.50;;;5.87;;
18720;SDS011;9489;50.948;3.114;2024-01-10T00:35:39;8.43;;;6.13;;
18720;SDS011;9489;50.948;3.114;2024-01-10T00:38:04;7.57;;;5.60;;
18720;SDS011;9489;50.948;3.114;2024-01-10T00:40:30;10.80;;;6.47;;
18720;SDS011;9489;50.948;3.114;2024-01-10T00:42:57;8.80;;;6.33;;
18720;SDS011;9489;50.948;3.114;2024-01-10T00:45:24;8.17;;;5.97;;
18720;SDS011;9489;50.948;3.114;2024-01-10T00:47:49;7.40;;;5.73;;
18720;SDS011;9489;50.948;3.114;2024-01-10T00:50:15;9.30;;;6.30;;
18720;SDS011;9489;50.948;3.114;2024-01-10T00:52:41;9.37;;;6.30;;
18720;SDS011;9489;50.948;3.114;2024-01-10T00:55:11;8.77;;;6.03;;
18720;SDS011;9489;50.948;3.114;2024-01-10T00:57:37;9.40;;;6.23;;
18720;SDS011;9489;50.948;3.114;2024-01-10T01:00:06;8.03;;;6.37;;
18720;SDS011;9489;50.948;3.114;2024-01-10T01:02:32;10.13;;;6.63;;
18720;SDS011;9489;50.948;3.114;2024-01-10T01:04:58;9.83;;;6.93;;
18720;SDS011;9489;50.948;3.114;2024-01-10T01:07:24;9.97;;;7.20;;
18720;SDS011;9489;50.948;3.114;2024-01-10T01:09:49;9.63;;;6.90;;
18720;SDS011;9489;50.948;3.114;2024-01-10T01:12:15;10.77;;;7.07;;
18720;SDS011;9489;50.948;3.114;2024-01-10T01:14:41;11.93;;;7.27;;
18720;SDS011;9489;50.948;3.114;2024-01-10T01:17:06;9.57;;;6.63;;
18720;SDS011;9489;50.948;3.114;2024-01-10T01:19:32;10.10;;;6.80;;
18720;SDS011;9489;50.948;3.114;2024-01-10T01:21:58;9.97;;;7.33;;
18720;SDS011;9489;50.948;3.114;2024-01-10T01:24:23;12.17;;;7.80;;
18720;SDS011;9489;50.948;3.114;2024-01-10T01:26:50;12.40;;;7.93;;
18720;SDS011;9489;50.948;3.114;2024-01-10T01:29:16;11.83;;;7.63;;
18720;SDS011;9489;50.948;3.114;2024-01-10T01:31:42;12.23;;;7.70;;
18720;SDS011;9489;50.948;3.114;2024-01-10T01:34:07;11.53;;;8.03;;
18720;SDS011;9489;50.948;3.114;2024-01-10T01:36:33;11.83;;;8.07;;
18720;SDS011;9489;50.948;3.114;2024-01-10T01:38:59;11.17;;;8.40;;
18720;SDS011;9489;50.948;3.114;2024-01-10T01:41:25;10.53;;;8.00;;
18720;SDS011;9489;50.948;3.114;2024-01-10T01:43:50;10.30;;;7.77;;
18720;SDS011;9489;50.948;3.114;2024-01-10T01:46:16;9.67;;;7.40;;
18720;SDS011;9489;50.948;3.114;2024-01-10T01:48:42;10.63;;;8.43;;
18720;SDS011;9489;50.948;3.114;2024-01-10T01:51:08;12.03;;;7.93;;
18720;SDS011;9489;50.948;3.114;2024-01-10T01:53:36;12.43;;;8.73;;
18720;SDS011;9489;50.948;3.114;2024-01-10T01:56:05;13.33;;;8.23;;
18720;SDS011;9489;50.948;3.114;2024-01-10T01:58:31;11.27;;;8.10;;
18720;SDS011;9489;50.948;3.114;2024-01-10T02:00:58;12.10;;;8.10;;
18720;SDS011;9489;50.948;3.114;2024-01-10T02:03:24;11.63;;;8.17;;
18720;SDS011;9489;50.948;3.114;2024-01-10T02:05:51;13.37;;;9.53;;
18720;SDS011;9489;50.948;3.114;2024-01-10T02:08:17;12.97;;;8.27;;
18720;SDS011;9489;50.948;3.114;2024-01-10T02:10:43;14.33;;;8.13;;
18720;SDS011;9489;50.948;3.114;2024-01-10T02:13:09;13.53;;;8.37;;
18720;SDS011;9489;50.948;3.114;2024-01-10T02:15:36;10.03;;;7.83;;
18720;SDS011;9489;50.948;3.114;2024-01-10T02:18:03;12.00;;;7.87;;
18720;SDS011;9489;50.948;3.114;2024-01-10T02:20:30;10.57;;;7.60;;
18720;SDS011;9489;50.948;3.114;2024-01-10T02:22:56;11.50;;;7.70;;
18720;SDS011;9489;50.948;3.114;2024-01-10T02:25:22;9.40;;;7.37;;
18720;SDS011;9489;50.948;3.114;2024-01-10T02:27:48;10.57;;;7.80;;
18720;SDS011;9489;50.948;3.114;2024-01-10T02:30:14;10.13;;;7.60;;
18720;SDS011;9489;50.948;3.114;2024-01-10T02:32:40;10.17;;;7.90;;
18720;SDS011;9489;50.948;3.114;2024-01-10T02:35:06;9.37;;;7.33;;
18720;SDS011;9489;50.948;3.114;2024-01-10T02:37:33;10.73;;;7.70;;
18720;SDS011;9489;50.948;3.114;2024-01-10T02:39:58;10.20;;;7.60;;
18720;SDS011;9489;50.948;3.114;2024-01-10T02:42:24;10.77;;;7.67;;
18720;SDS011;9489;50.948;3.114;2024-01-10T02:44:51;11.60;;;7.43;;
18720;SDS011;9489;50.948;3.114;2024-01-10T02:47:17;9.43;;;7.03;;
18720;SDS011;9489;50.948;3.114;2024-01-10T02:49:42;8.43;;;6.90;;
18720;SDS011;9489;50.948;3.114;2024-01-10T02:52:08;10.27;;;7.03;;
18720;SDS011;9489;50.948;3.114;2024-01-10T02:54:33;10.53;;;7.27;;
18720;SDS011;9489;50.948;3.114;2024-01-10T02:56:59;8.53;;;6.53;;
18720;SDS011;9489;50.948;3.114;2024-01-10T02:59:25;10.13;;;6.90;;
18720;SDS011;9489;50.948;3.114;2024-01-10T03:01:50;8.83;;;7.07;;
18720;SDS011;9489;50.948;3.114;2024-01-10T03:04:16;9.77;;;6.47;;
18720;SDS011;9489;50.948;3.114;2024-01-10T03:06:42;9.23;;;6.33;;
18720;SDS011;9489;50.948;3.114;2024-01-10T03:09:07;10.80;;;7.50;;
18720;SDS011;9489;50.948;3.114;2024-01-10T03:11:33;10.87;;;7.27;;
18720;SDS011;9489;50.948;3.114;2024-01-10T03:14:01;10.30;;;6.77;;
18720;SDS011;9489;50.948;3.114;2024-01-10T03:16:29;9.20;;;6.83;;
18720;SDS011;9489;50.948;3.114;2024-01-10T03:18:55;10.37;;;6.73;;
18720;SDS011;9489;50.948;3.114;2024-01-10T03:21:21;8.90;;;6.07;;
18720;SDS011;9489;50.948;3.114;2024-01-10T03:23:56;9.83;;;6.60;;
18720;SDS011;9489;50.948;3.114;2024-01-10T03:26:23;8.43;;;6.33;;
18720;SDS011;9489;50.948;3.114;2024-01-10T03:28:49;8.73;;;6.53;;
18720;SDS011;9489;50.948;3.114;2024-01-10T03:31:16;8.17;;;6.80;;
18720;SDS011;9489;50.948;3.114;2024-01-10T03:33:42;6.77;;;6.07;;
18720;SDS011;9489;50.948;3.114;2024-01-10T03:36:09;9.07;;;6.10;;
18720;SDS011;9489;50.948;3.114;2024-01-10T03:38:39;6.80;;;6.10;;
18720;SDS011;9489;50.948;3.114;2024-01-10T03:41:05;7.37;;;6.50;;
18720;SDS011;9489;50.948;3.114;2024-01-10T03:43:31;8.80;;;6.70;;
18720;SDS011;9489;50.948;3.114;2024-01-10T03:45:57;11.87;;;7.30;;
18720;SDS011;9489;50.948;3.114;2024-01-10T03:48:23;9.80;;;6.23;;
18720;SDS011;9489;50.948;3.114;2024-01-10T03:50:49;9.03;;;7.03;;
18720;SDS011;9489;50.948;3.114;2024-01-10T03:53:15;9.27;;;6.53;;
18720;SDS011;9489;50.948;3.114;2024-01-10T03:55:41;9.03;;;6.47;;
18720;SDS011;9489;50.948;3.114;2024-01-10T03:58:06;10.13;;;6.33;;
18720;SDS011;9489;50.948;3.114;2024-01-10T04:00:32;8.07;;;5.93;;
18720;SDS011;9489;50.948;3.114;2024-01-10T04:02:58;10.40;;;6.33;;
18720;SDS011;9489;50.948;3.114;2024-01-10T04:05:24;9.13;;;6.47;;
18720;SDS011;9489;50.948;3.114;2024-01-10T04:07:50;8.67;;;6.20;;
18720;SDS011;9489;50.948;3.114;2024-01-10T04:10:17;9.53;;;6.57;;
18720;SDS011;9489;50.948;3.114;2024-01-10T04:12:43;8.73;;;6.70;;
18720;SDS011;9489;50.948;3.114;2024-01-10T04:15:10;10.03;;;6.13;;
18720;SDS011;9489;50.948;3.114;2024-01-10T04:17:36;8.33;;;6.40;;
18720;SDS011;9489;50.948;3.114;2024-01-10T04:20:02;8.70;;;6.53;;
18720;SDS011;9489;50.948;3.114;2024-01-10T04:22:28;7.43;;;6.60;;
18720;SDS011;9489;50.948;3.114;2024-01-10T04:24:58;9.77;;;6.83;;
18720;SDS011;9489;50.948;3.114;2024-01-10T04:27:24;8.17;;;6.30;;
18720;SDS011;9489;50.948;3.114;2024-01-10T04:29:51;9.30;;;6.13;;
18720;SDS011;9489;50.948;3.114;2024-01-10T04:32:16;9.70;;;6.13;;
18720;SDS011;9489;50.948;3.114;2024-01-10T04:34:42;9.40;;;6.47;;
18720;SDS011;9489;50.948;3.114;2024-01-10T04:37:08;10.47;;;5.87;;
18720;SDS011;9489;50.948;3.114;2024-01-10T04:39:34;10.53;;;6.80;;
18720;SDS011;9489;50.948;3.114;2024-01-10T04:42:00;11.97;;;7.20;;
18720;SDS011;9489;50.948;3.114;2024-01-10T04:44:26;8.60;;;6.93;;
18720;SDS011;9489;50.948;3.114;2024-01-10T04:46:51;10.33;;;6.80;;
18720;SDS011;9489;50.948;3.114;2024-01-10T04:49:17;9.93;;;6.23;;
18720;SDS011;9489;50.948;3.114;2024-01-10T04:51:43;9.27;;;6.30;;
18720;SDS011;9489;50.948;3.114;2024-01-10T04:54:09;10.73;;;6.67;;
18720;SDS011;9489;50.948;3.114;2024-01-10T04:56:35;11.47;;;7.03;;
18720;SDS011;9489;50.948;3.114;2024-01-10T04:59:04;9.80;;;5.87;;
18720;SDS011;9489;50.948;3.114;2024-01-10T05:01:30;10.80;;;6.70;;
18720;SDS011;9489;50.948;3.114;2024-01-10T05:03:56;8.73;;;7.03;;
18720;SDS011;9489;50.948;3.114;2024-01-10T05:06:22;9.33;;;6.80;;
18720;SDS011;9489;50.948;3.114;2024-01-10T05:08:48;10.73;;;6.93;;
18720;SDS011;9489;50.948;3.114;2024-01-10T05:11:14;8.63;;;6.27;;
18720;SDS011;9489;50.948;3.114;2024-01-10T05:13:41;10.03;;;6.13;;
18720;SDS011;9489;50.948;3.114;2024-01-10T05:16:09;10.57;;;7.00;;
18720;SDS011;9489;50.948;3.114;2024-01-10T05:18:35;8.27;;;6.07;;
18720;SDS011;9489;50.948;3.114;2024-01-10T05:21:01;9.93;;;7.00;;
18720;SDS011;9489;50.948;3.114;2024-01-10T05:23:28;9.87;;;7.03;;
18720;SDS011;9489;50.948;3.114;2024-01-10T05:25:54;11.00;;;6.60;;
18720;SDS011;9489;50.948;3.114;2024-01-10T05:28:20;9.27;;;6.40;;
18720;SDS011;9489;50.948;3.114;2024-01-10T05:30:46;9.67;;;6.73;;
18720;SDS011;9489;50.948;3.114;2024-01-10T05:33:12;11.80;;;7.20;;
18720;SDS011;9489;50.948;3.114;2024-01-10T05:35:42;11.53;;;7.23;;
18720;SDS011;9489;50.948;3.114;2024-01-10T05:38:07;10.37;;;7.27;;
18720;SDS011;9489;50.948;3.114;2024-01-10T05:40:33;10.33;;;7.03;;
18720;SDS011;9489;50.948;3.114;2024-01-10T05:42:59;12.57;;;7.00;;
18720;SDS011;9489;50.948;3.114;2024-01-10T05:45:25;13.53;;;7.70;;
18720;SDS011;9489;50.948;3.114;2024-01-10T05:47:51;11.57;;;7.47;;
18720;SDS011;9489;50.948;3.114;2024-01-10T05:50:17;8.97;;;6.13;;
18720;SDS011;9489;50.948;3.114;2024-01-10T05:52:43;8.17;;;6.63;;
18720;SDS011;9489;50.948;3.114;2024-01-10T05:55:09;14.07;;;6.53;;
18720;SDS011;9489;50.948;3.114;2024-01-10T05:57:35;8.77;;;5.87;;
18720;SDS011;9489;50.948;3.114;2024-01-10T06:00:01;9.80;;;6.00;;
18720;SDS011;9489;50.948;3.114;2024-01-10T06:02:28;9.60;;;5.77;;
18720;SDS011;9489;50.948;3.114;2024-01-10T06:04:54;8.27;;;7.10;;
18720;SDS011;9489;50.948;3.114;2024-01-10T06:07:19;9.47;;;6.17;;
18720;SDS011;9489;50.948;3.114;2024-01-10T06:09:48;9.80;;;6.77;;
18720;SDS011;9489;50.948;3.114;2024-01-10T06:12:14;8.77;;;6.27;;
18720;SDS011;9489;50.948;3.114;2024-01-10T06:14:40;10.43;;;6.27;;
18720;SDS011;9489;50.948;3.114;2024-01-10T06:17:06;9.07;;;6.23;;
18720;SDS011;9489;50.948;3.114;2024-01-10T06:19:31;9.47;;;6.53;;
18720;SDS011;9489;50.948;3.114;2024-01-10T06:21:58;10.67;;;6.60;;
18720;SDS011;9489;50.948;3.114;2024-01-10T06:24:24;8.30;;;6.43;;
18720;SDS011;9489;50.948;3.114;2024-01-10T06:26:50;10.53;;;6.87;;
18720;SDS011;9489;50.948;3.114;2024-01-10T06:29:16;9.60;;;6.73;;
18720;SDS011;9489;50.948;3.114;2024-01-10T06:31:42;9.00;;;6.00;;
18720;SDS011;9489;50.948;3.114;2024-01-10T06:34:08;8.60;;;6.50;;
18720;SDS011;9489;50.948;3.114;2024-01-10T06:36:34;8.47;;;6.80;;
18720;SDS011;9489;50.948;3.114;2024-01-10T06:39:00;10.03;;;6.83;;
18720;SDS011;9489;50.948;3.114;2024-01-10T06:41:26;9.33;;;6.63;;
18720;SDS011;9489;50.948;3.114;2024-01-10T06:43:52;9.07;;;6.50;;
18720;SDS011;9489;50.948;3.114;2024-01-10T06:46:18;9.10;;;6.30;;
18720;SDS011;9489;50.948;3.114;2024-01-10T06:48:45;11.43;;;6.57;;
18720;SDS011;9489;50.948;3.114;2024-01-10T06:51:14;8.37;;;6.00;;
18720;SDS011;9489;50.948;3.114;2024-01-10T06:53:41;11.53;;;7.00;;
18720;SDS011;9489;50.948;3.114;2024-01-10T06:56:06;9.73;;;7.07;;
18720;SDS011;9489;50.948;3.114;2024-01-10T06:58:34;13.10;;;7.20;;
18720;SDS011;9489;50.948;3.114;2024-01-10T07:01:00;12.10;;;7.40;;
18720;SDS011;9489;50.948;3.114;2024-01-10T07:03:26;14.03;;;7.77;;
18720;SDS011;9489;50.948;3.114;2024-01-10T07:05:52;15.47;;;7.37;;
18720;SDS011;9489;50.948;3.114;2024-01-10T07:08:17;15.00;;;8.37;;
18720;SDS011;9489;50.948;3.114;2024-01-10T07:10:43;14.57;;;8.77;;
18720;SDS011;9489;50.948;3.114;2024-01-10T07:13:09;14.73;;;8.60;;
18720;SDS011;9489;50.948;3.114;2024-01-10T07:15:35;16.10;;;9.77;;
18720;SDS011;9489;50.948;3.114;2024-01-10T07:18:00;20.67;;;9.90;;
18720;SDS011;9489;50.948;3.114;2024-01-10T07:20:26;17.93;;;10.00;;
18720;SDS011;9489;50.948;3.114;2024-01-10T07:22:52;14.23;;;9.23;;
18720;SDS011;9489;50.948;3.114;2024-01-10T07:25:18;15.90;;;10.03;;
18720;SDS011;9489;50.948;3.114;2024-01-10T07:27:43;17.20;;;9.30;;
18720;SDS011;9489;50.948;3.114;2024-01-10T07:30:09;15.37;;;8.73;;
18720;SDS011;9489;50.948;3.114;2024-01-10T07:32:41;14.93;;;8.73;;
18720;SDS011;9489;50.948;3.114;2024-01-10T07:35:11;16.07;;;8.07;;
18720;SDS011;9489;50.948;3.114;2024-01-10T07:37:41;15.53;;;9.57;;
18720;SDS011;9489;50.948;3.114;2024-01-10T07:40:09;13.93;;;8.70;;
18720;SDS011;9489;50.948;3.114;2024-01-10T07:42:36;12.07;;;7.60;;
18720;SDS011;9489;50.948;3.114;2024-01-10T07:45:02;13.77;;;8.27;;
18720;SDS011;9489;50.948;3.114;2024-01-10T07:47:33;11.07;;;7.33;;
18720;SDS011;9489;50.948;3.114;2024-01-10T07:50:02;11.00;;;7.23;;
18720;SDS011;9489;50.948;3.114;2024-01-10T07:52:32;13.63;;;8.20;;
18720;SDS011;9489;50.948;3.114;2024-01-10T07:54:58;9.20;;;6.77;;
18720;SDS011;9489;50.948;3.114;2024-01-10T07:57:24;11.87;;;7.43;;
18720;SDS011;9489;50.948;3.114;2024-01-10T07:59:49;10.97;;;7.50;;
18720;SDS011;9489;50.948;3.114;2024-01-10T08:02:15;8.77;;;7.23;;
18720;SDS011;9489;50.948;3.114;2024-01-10T08:04:41;10.13;;;7.13;;
18720;SDS011;9489;50.948;3.114;2024-01-10T08:07:07;12.00;;;7.33;;
18720;SDS011;9489;50.948;3.114;2024-01-10T08:09:33;10.70;;;6.90;;
18720;SDS011;9489;50.948;3.114;2024-01-10T08:11:59;11.13;;;7.67;;
18720;SDS011;9489;50.948;3.114;2024-01-10T08:14:25;11.40;;;7.50;;
18720;SDS011;9489;50.948;3.114;2024-01-10T08:16:52;11.77;;;7.87;;
18720;SDS011;9489;50.948;3.114;2024-01-10T08:19:23;11.60;;;6.93;;
18720;SDS011;9489;50.948;3.114;2024-01-10T08:21:51;12.83;;;7.70;;
18720;SDS011;9489;50.948;3.114;2024-01-10T08:24:20;11.13;;;7.93;;
18720;SDS011;9489;50.948;3.114;2024-01-10T08:26:46;11.20;;;7.57;;
18720;SDS011;9489;50.948;3.114;2024-01-10T08:29:19;14.87;;;8.13;;
18720;SDS011;9489;50.948;3.114;2024-01-10T08:31:45;10.30;;;7.63;;
18720;SDS011;9489;50.948;3.114;2024-01-10T08:34:11;12.80;;;8.50;;
18720;SDS011;9489;50.948;3.114;2024-01-10T08:36:37;11.20;;;6.93;;
18720;SDS011;9489;50.948;3.114;2024-01-10T08:39:03;14.37;;;7.70;;
18720;SDS011;9489;50.948;3.114;2024-01-10T08:41:29;13.00;;;7.93;;
18720;SDS011;9489;50.948;3.114;2024-01-10T08:43:55;11.20;;;8.60;;
18720;SDS011;9489;50.948;3.114;2024-01-10T08:46:22;12.90;;;7.83;;
18720;SDS011;9489;50.948;3.114;2024-01-10T08:48:49;11.13;;;7.17;;
18720;SDS011;9489;50.948;3.114;2024-01-10T08:51:15;11.60;;;7.77;;
18720;SDS011;9489;50.948;3.114;2024-01-10T08:53:42;9.83;;;7.30;;
18720;SDS011;9489;50.948;3.114;2024-01-10T08:56:09;13.77;;;7.30;;
18720;SDS011;9489;50.948;3.114;2024-01-10T08:58:35;11.97;;;7.67;;
18720;SDS011;9489;50.948;3.114;2024-01-10T09:01:01;10.55;;;7.28;;
18720;SDS011;9489;50.948;3.114;2024-01-10T09:03:27;11.82;;;7.00;;
18720;SDS011;9489;50.948;3.114;2024-01-10T09:05:53;10.35;;;6.70;;
18720;SDS011;9489;50.948;3.114;2024-01-10T09:08:18;9.40;;;7.05;;
18720;SDS011;9489;50.948;3.114;2024-01-10T09:10:44;11.07;;;7.35;;
18720;SDS011;9489;50.948;3.114;2024-01-10T09:13:10;7.03;;;6.10;;
18720;SDS011;9489;50.948;3.114;2024-01-10T09:15:35;8.88;;;6.97;;
18720;SDS011;9489;50.948;3.114;2024-01-10T09:18:01;8.63;;;6.97;;
18720;SDS011;9489;50.948;3.114;2024-01-10T09:20:27;8.55;;;6.97;;
18720;SDS011;9489;50.948;3.114;2024-01-10T09:22:53;7.95;;;6.72;;
18720;SDS011;9489;50.948;3.114;2024-01-10T09:25:19;7.25;;;6.53;;
18720;SDS011;9489;50.948;3.114;2024-01-10T09:27:45;7.50;;;6.20;;
18720;SDS011;9489;50.948;3.114;2024-01-10T09:30:12;8.00;;;6.95;;
18720;SDS011;9489;50.948;3.114;2024-01-10T09:32:39;8.93;;;6.80;;
18720;SDS011;9489;50.948;3.114;2024-01-10T09:35:04;7.80;;;6.85;;
18720;SDS011;9489;50.948;3.114;2024-01-10T09:37:30;9.90;;;7.78;;
18720;SDS011;9489;50.948;3.114;2024-01-10T09:39:56;9.02;;;6.95;;
18720;SDS011;9489;50.948;3.114;2024-01-10T09:42:22;8.18;;;7.25;;
18720;SDS011;9489;50.948;3.114;2024-01-10T09:44:53;8.18;;;7.35;;
18720;SDS011;9489;50.948;3.114;2024-01-10T09:47:20;8.13;;;6.57;;
18720;SDS011;9489;50.948;3.114;2024-01-10T09:49:46;9.38;;;7.47;;
18720;SDS011;9489;50.948;3.114;2024-01-10T09:52:46;8.98;;;7.03;;
18720;SDS011;9489;50.948;3.114;2024-01-10T09:55:06;10.70;;;7.53;;
18720;SDS011;9489;50.948;3.114;2024-01-10T09:57:34;9.10;;;7.60;;
18720;SDS011;9489;50.948;3.114;2024-01-10T10:00:01;10.07;;;7.95;;
18720;SDS011;9489;50.948;3.114;2024-01-10T10:02:30;8.02;;;7.28;;
18720;SDS011;9489;50.948;3.114;2024-01-10T10:05:18;9.38;;;7.55;;
18720;SDS011;9489;50.948;3.114;2024-01-10T10:07:47;8.68;;;7.43;;
18720;SDS011;9489;50.948;3.114;2024-01-10T10:10:18;9.63;;;7.32;;
18720;SDS011;9489;50.948;3.114;2024-01-10T10:15:32;9.45;;;8.18;;
18720;SDS011;9489;50.948;3.114;2024-01-10T10:17:57;8.68;;;7.75;;
18720;SDS011;9489;50.948;3.114;2024-01-10T10:20:26;9.20;;;7.95;;
18720;SDS011;9489;50.948;3.114;2024-01-10T10:23:06;9.23;;;7.80;;
18720;SDS011;9489;50.948;3.114;2024-01-10T10:27:59;9.68;;;8.45;;
18720;SDS011;9489;50.948;3.114;2024-01-10T10:30:26;8.88;;;7.97;;
18720;SDS011;9489;50.948;3.114;2024-01-10T10:32:52;9.45;;;7.88;;
18720;SDS011;9489;50.948;3.114;2024-01-10T10:35:18;10.30;;;7.93;;
18720;SDS011;9489;50.948;3.114;2024-01-10T10:37:50;9.98;;;7.03;;
18720;SDS011;9489;50.948;3.114;2024-01-10T10:40:18;9.38;;;7.75;;
18720;SDS011;9489;50.948;3.114;2024-01-10T10:42:45;9.20;;;7.43;;
18720;SDS011;9489;50.948;3.114;2024-01-10T10:45:15;11.40;;;7.85;;
18720;SDS011;9489;50.948;3.114;2024-01-10T10:47:46;9.68;;;8.60;;
18720;SDS011;9489;50.948;3.114;2024-01-10T10:50:23;9.15;;;8.13;;
18720;SDS011;9489;50.948;3.114;2024-01-10T10:52:51;10.23;;;9.10;;
18720;SDS011;9489;50.948;3.114;2024-01-10T10:55:17;9.60;;;7.85;;
18720;SDS011;9489;50.948;3.114;2024-01-10T10:57:47;10.02;;;9.05;;
18720;SDS011;9489;50.948;3.114;2024-01-10T11:00:18;9.50;;;8.50;;
18720;SDS011;9489;50.948;3.114;2024-01-10T11:02:46;9.00;;;8.02;;
18720;SDS011;9489;50.948;3.114;2024-01-10T11:05:12;8.48;;;7.75;;
18720;SDS011;9489;50.948;3.114;2024-01-10T11:07:42;9.48;;;8.35;;
18720;SDS011;9489;50.948;3.114;2024-01-10T11:10:18;10.73;;;9.27;;
18720;SDS011;9489;50.948;3.114;2024-01-10T11:24:13;9.75;;;8.85;;
18720;SDS011;9489;50.948;3.114;2024-01-10T11:26:39;10.77;;;9.05;;
18720;SDS011;9489;50.948;3.114;2024-01-10T11:29:05;10.48;;;9.50;;
18720;SDS011;9489;50.948;3.114;2024-01-10T11:31:31;10.30;;;8.43;;
18720;SDS011;9489;50.948;3.114;2024-01-10T11:33:58;9.80;;;8.82;;
18720;SDS011;9489;50.948;3.114;2024-01-10T11:36:25;10.20;;;9.23;;
18720;SDS011;9489;50.948;3.114;2024-01-10T11:41:25;10.23;;;9.23;;
18720;SDS011;9489;50.948;3.114;2024-01-10T11:46:43;10.65;;;8.85;;
18720;SDS011;9489;50.948;3.114;2024-01-10T11:49:14;10.38;;;9.27;;
18720;SDS011;9489;50.948;3.114;2024-01-10T11:51:48;10.63;;;9.52;;
18720;SDS011;9489;50.948;3.114;2024-01-10T11:57:21;11.48;;;10.02;;
18720;SDS011;9489;50.948;3.114;2024-01-10T11:59:52;11.65;;;9.63;;
18720;SDS011;9489;50.948;3.114;2024-01-10T12:02:19;11.18;;;10.07;;
18720;SDS011;9489;50.948;3.114;2024-01-10T12:04:46;10.60;;;9.52;;
18720;SDS011;9489;50.948;3.114;2024-01-10T12:07:12;10.23;;;9.23;;
18720;SDS011;9489;50.948;3.114;2024-01-10T12:09:38;12.18;;;9.50;;
18720;SDS011;9489;50.948;3.114;2024-01-10T12:12:04;10.43;;;9.40;;
18720;SDS011;9489;50.948;3.114;2024-01-10T12:14:31;12.00;;;10.70;;
18720;SDS011;9489;50.948;3.114;2024-01-10T12:16:57;14.40;;;10.93;;
18720;SDS011;9489;50.948;3.114;2024-01-10T12:19:24;11.48;;;10.25;;
18720;SDS011;9489;50.948;3.114;2024-01-10T12:21:50;11.80;;;10.57;;
18720;SDS011;9489;50.948;3.114;2024-01-10T12:24:15;10.65;;;9.60;;
18720;SDS011;9489;50.948;3.114;2024-01-10T12:26:45;10.88;;;9.65;;
18720;SDS011;9489;50.948;3.114;2024-01-10T12:29:20;12.02;;;10.38;;
18720;SDS011;9489;50.948;3.114;2024-01-10T12:31:46;10.73;;;9.05;;
18720;SDS011;9489;50.948;3.114;2024-01-10T12:34:13;10.52;;;9.45;;
18720;SDS011;9489;50.948;3.114;2024-01-10T12:36:40;12.98;;;9.68;;
18720;SDS011;9489;50.948;3.114;2024-01-10T12:39:06;13.05;;;10.60;;
18720;SDS011;9489;50.948;3.114;2024-01-10T12:41:32;12.85;;;9.10;;
18720;SDS011;9489;50.948;3.114;2024-01-10T12:43:59;13.50;;;9.30;;
18720;SDS011;9489;50.948;3.114;2024-01-10T12:46:28;10.85;;;8.88;;
18720;SDS011;9489;50.948;3.114;2024-01-10T12:49:01;13.50;;;9.30;;
18720;SDS011;9489;50.948;3.114;2024-01-10T12:51:30;10.98;;;9.40;;
18720;SDS011;9489;50.948;3.114;2024-01-10T12:53:57;11.20;;;9.80;;
18720;SDS011;9489;50.948;3.114;2024-01-10T12:56:27;11.85;;;9.25;;
18720;SDS011;9489;50.948;3.114;2024-01-10T12:58:53;12.68;;;9.82;;
18720;SDS011;9489;50.948;3.114;2024-01-10T13:01:25;13.18;;;9.27;;
18720;SDS011;9489;50.948;3.114;2024-01-10T13:03:51;13.75;;;9.90;;
18720;SDS011;9489;50.948;3.114;2024-01-10T13:06:17;14.05;;;9.57;;
18720;SDS011;9489;50.948;3.114;2024-01-10T13:08:44;10.70;;;9.30;;
18720;SDS011;9489;50.948;3.114;2024-01-10T13:11:11;12.27;;;9.02;;
18720;SDS011;9489;50.948;3.114;2024-01-10T13:13:37;12.68;;;9.35;;
18720;SDS011;9489;50.948;3.114;2024-01-10T13:16:03;11.57;;;9.13;;
18720;SDS011;9489;50.948;3.114;2024-01-10T13:18:28;10.50;;;9.20;;
18720;SDS011;9489;50.948;3.114;2024-01-10T13:20:54;14.82;;;9.65;;
18720;SDS011;9489;50.948;3.114;2024-01-10T13:23:20;11.13;;;9.35;;
18720;SDS011;9489;50.948;3.114;2024-01-10T13:25:49;10.45;;;8.32;;
18720;SDS011;9489;50.948;3.114;2024-01-10T13:28:16;12.75;;;9.85;;
18720;SDS011;9489;50.948;3.114;2024-01-10T13:30:41;14.95;;;10.10;;
18720;SDS011;9489;50.948;3.114;2024-01-10T13:33:10;12.73;;;9.13;;
18720;SDS011;9489;50.948;3.114;2024-01-10T13:35:36;12.75;;;10.13;;
18720;SDS011;9489;50.948;3.114;2024-01-10T13:38:02;12.13;;;9.68;;
18720;SDS011;9489;50.948;3.114;2024-01-10T13:40:28;12.85;;;10.00;;
18720;SDS011;9489;50.948;3.114;2024-01-10T13:42:54;15.23;;;10.23;;
18720;SDS011;9489;50.948;3.114;2024-01-10T13:45:19;11.13;;;8.23;;
18720;SDS011;9489;50.948;3.114;2024-01-10T13:47:46;12.70;;;9.60;;
18720;SDS011;9489;50.948;3.114;2024-01-10T13:50:12;13.68;;;10.05;;
18720;SDS011;9489;50.948;3.114;2024-01-10T13:52:38;14.80;;;9.65;;
18720;SDS011;9489;50.948;3.114;2024-01-10T13:55:04;13.05;;;9.68;;
18720;SDS011;9489;50.948;3.114;2024-01-10T13:57:30;14.32;;;9.80;;
18720;SDS011;9489;50.948;3.114;2024-01-10T13:59:57;13.85;;;9.13;;
18720;SDS011;9489;50.948;3.114;2024-01-10T14:02:23;12.35;;;9.77;;
18720;SDS011;9489;50.948;3.114;2024-01-10T14:04:49;14.25;;;11.40;;
18720;SDS011;9489;50.948;3.114;2024-01-10T14:07:15;14.50;;;10.27;;
18720;SDS011;9489;50.948;3.114;2024-01-10T14:09:41;16.75;;;11.07;;
18720;SDS011;9489;50.948;3.114;2024-01-10T14:12:07;13.45;;;9.65;;
18720;SDS011;9489;50.948;3.114;2024-01-10T14:14:32;14.40;;;10.15;;
18720;SDS011;9489;50.948;3.114;2024-01-10T14:16:58;12.77;;;9.57;;
18720;SDS011;9489;50.948;3.114;2024-01-10T14:19:24;10.43;;;8.82;;
18720;SDS011;9489;50.948;3.114;2024-01-10T14:21:49;13.27;;;9.48;;
18720;SDS011;9489;50.948;3.114;2024-01-10T14:24:15;11.13;;;9.23;;
18720;SDS011;9489;50.948;3.114;2024-01-10T14:26:41;12.30;;;9.52;;
18720;SDS011;9489;50.948;3.114;2024-01-10T14:29:07;12.85;;;9.95;;
18720;SDS011;9489;50.948;3.114;2024-01-10T14:31:34;12.20;;;9.70;;
18720;SDS011;9489;50.948;3.114;2024-01-10T14:33:59;16.88;;;9.57;;
18720;SDS011;9489;50.948;3.114;2024-01-10T14:36:25;12.07;;;9.27;;
18720;SDS011;9489;50.948;3.114;2024-01-10T14:38:51;12.85;;;9.43;;
18720;SDS011;9489;50.948;3.114;2024-01-10T14:41:16;12.85;;;10.20;;
18720;SDS011;9489;50.948;3.114;2024-01-10T14:43:42;13.88;;;9.43;;
18720;SDS011;9489;50.948;3.114;2024-01-10T14:46:08;12.50;;;9.77;;
18720;SDS011;9489;50.948;3.114;2024-01-10T14:48:35;13.00;;;9.48;;
18720;SDS011;9489;50.948;3.114;2024-01-10T14:51:00;13.25;;;9.23;;
18720;SDS011;9489;50.948;3.114;2024-01-10T14:53:26;12.43;;;9.02;;
18720;SDS011;9489;50.948;3.114;2024-01-10T14:55:52;11.95;;;9.57;;
18720;SDS011;9489;50.948;3.114;2024-01-10T14:58:18;15.02;;;10.10;;
18720;SDS011;9489;50.948;3.114;2024-01-10T15:00:45;13.70;;;9.90;;
18720;SDS011;9489;50.948;3.114;2024-01-10T15:03:10;24.58;;;22.42;;
18720;SDS011;9489;50.948;3.114;2024-01-10T15:05:36;13.75;;;10.77;;
18720;SDS011;9489;50.948;3.114;2024-01-10T15:08:02;13.50;;;10.23;;
18720;SDS011;9489;50.948;3.114;2024-01-10T15:10:32;15.57;;;10.70;;
18720;SDS011;9489;50.948;3.114;2024-01-10T15:12:58;13.90;;;10.02;;
18720;SDS011;9489;50.948;3.114;2024-01-10T15:15:24;14.77;;;10.65;;